Time;durP1;ratioP1;P1;durP2;ratioP2;P2;SDS_P1;SDS_P2;PMS_P1;PMS_P2;Temp;Humidity;BMP_temperature;BMP_pressure;BME280_temperature;BME280_humidity;BME280_pressure;Samples;Min_cycle;Max_cycle;Signal;HPM_P1;HPM_P2
2021/01/23 09:39:34;;;;;;;4.40;1.33;;;6.80;99.90;;;;;;4343585;22;20231;-68
2021/01/23 09:42:00;;;;;;;2.70;1.20;;;6.80;99.90;;;;;;5036307;28;20205;-70
2021/01/23 09:44:27;;;;;;;4.97;1.87;;;6.80;99.90;;;;;;5051191;28;20239;-70
2021/01/23 09:46:53;;;;;;;2.67;1.17;;;6.80;99.90;;;;;;5053511;28;20301;-72
2021/01/23 09:49:20;;;;;;;7.90;1.43;;;6.90;99.90;;;;;;5045632;28;20209;-70
2021/01/23 09:51:46;;;;;;;2.83;1.03;;;7.00;99.90;;;;;;5031683;28;20242;-71
2021/01/23 09:54:12;;;;;;;2.80;1.10;;;6.90;99.90;;;;;;5031133;28;20679;-74
2021/01/23 09:56:39;;;;;;;4.83;1.60;;;6.90;99.90;;;;;;5031169;28;21037;-70
2021/01/23 09:59:06;;;;;;;2.53;1.10;;;6.70;99.90;;;;;;5033265;28;20204;-68
2021/01/23 10:01:32;;;;;;;1.87;1.30;;;6.70;99.90;;;;;;5033884;28;20212;-68
2021/01/23 10:03:58;;;;;;;2.20;1.20;;;6.70;99.90;;;;;;5035947;28;20208;-67
2021/01/23 10:06:24;;;;;;;2.23;1.07;;;6.80;99.90;;;;;;5037572;28;20240;-67
2021/01/23 10:08:51;;;;;;;1.17;0.90;;;6.70;99.90;;;;;;5039189;28;20201;-70
2021/01/23 10:11:18;;;;;;;4.27;1.20;;;6.70;99.90;;;;;;5031904;28;20740;-67
2021/01/23 10:13:45;;;;;;;8.43;1.20;;;6.80;99.90;;;;;;5033507;28;20209;-70
2021/01/23 10:16:11;;;;;;;8.57;1.20;;;6.80;99.90;;;;;;5033157;28;20918;-70
2021/01/23 10:18:38;;;;;;;3.67;1.30;;;6.90;99.90;;;;;;5033616;28;20263;-71
2021/01/23 10:21:05;;;;;;;3.03;1.27;;;7.10;99.90;;;;;;5033659;28;20204;-71
2021/01/23 10:23:31;;;;;;;1.87;0.93;;;7.00;99.90;;;;;;5033338;28;20671;-71
2021/01/23 10:25:58;;;;;;;7.00;1.17;;;7.00;99.90;;;;;;5033126;28;20240;-71
2021/01/23 10:28:24;;;;;;;2.60;1.10;;;7.10;99.90;;;;;;5033244;28;20205;-71
2021/01/23 10:30:51;;;;;;;5.80;1.20;;;7.20;99.90;;;;;;5032834;28;20205;-71
2021/01/23 10:33:18;;;;;;;6.23;1.10;;;7.30;99.90;;;;;;5033201;28;20216;-71
2021/01/23 10:35:44;;;;;;;1.90;1.00;;;7.30;99.90;;;;;;5033145;28;20220;-70
2021/01/23 10:38:10;;;;;;;3.60;1.60;;;7.40;99.90;;;;;;5033179;28;20216;-70
2021/01/23 10:40:36;;;;;;;4.50;1.43;;;7.40;99.90;;;;;;5032870;28;20219;-70
2021/01/23 10:43:03;;;;;;;2.37;1.00;;;7.40;99.90;;;;;;5032852;28;20213;-70
2021/01/23 10:45:29;;;;;;;3.50;1.43;;;7.40;99.90;;;;;;5032590;28;20236;-71
2021/01/23 10:47:56;;;;;;;4.83;1.57;;;7.50;99.90;;;;;;5032987;28;20279;-71
2021/01/23 10:50:22;;;;;;;2.17;1.33;;;7.40;99.90;;;;;;5033009;28;20205;-72
2021/01/23 10:52:49;;;;;;;4.07;0.93;;;7.40;99.90;;;;;;5032642;28;20667;-72
2021/01/23 10:55:15;;;;;;;4.20;0.97;;;7.40;99.90;;;;;;5032511;28;20240;-71
2021/01/23 10:57:41;;;;;;;1.67;0.80;;;7.50;99.90;;;;;;5032628;28;20232;-72
2021/01/23 11:00:09;;;;;;;1.80;1.00;;;7.70;99.90;;;;;;5032799;28;20576;-73
2021/01/23 11:02:38;;;;;;;2.03;0.83;;;7.90;99.90;;;;;;5032905;28;20209;-73
2021/01/23 11:05:07;;;;;;;3.33;1.23;;;8.10;99.90;;;;;;5032981;28;20236;-73
2021/01/23 11:07:33;;;;;;;1.60;0.83;;;8.20;99.90;;;;;;5035198;28;20706;-73
2021/01/23 11:10:00;;;;;;;3.13;1.00;;;8.30;99.90;;;;;;5036522;28;20592;-73
2021/01/23 11:12:26;;;;;;;4.50;1.10;;;8.50;99.90;;;;;;5036754;28;20217;-73
2021/01/23 11:14:52;;;;;;;1.50;0.87;;;8.60;99.90;;;;;;5036479;28;20216;-72
2021/01/23 11:17:18;;;;;;;6.40;0.90;;;8.50;99.90;;;;;;5036318;28;20239;-72
2021/01/23 11:19:45;;;;;;;1.90;0.70;;;8.50;99.90;;;;;;5036441;28;20797;-72
2021/01/23 11:22:12;;;;;;;1.50;1.00;;;8.50;99.90;;;;;;5036478;28;20209;-72
2021/01/23 11:24:40;;;;;;;3.93;0.80;;;8.50;99.90;;;;;;5036503;28;20225;-72
2021/01/23 11:27:06;;;;;;;2.00;0.70;;;8.40;99.90;;;;;;5036215;28;20225;-72
2021/01/23 11:29:34;;;;;;;3.23;0.90;;;8.60;99.90;;;;;;5036639;28;20208;-72
2021/01/23 11:32:01;;;;;;;2.50;0.97;;;8.50;99.90;;;;;;5036407;28;20223;-72
2021/01/23 11:34:28;;;;;;;1.30;1.00;;;8.60;99.90;;;;;;5036427;28;20243;-73
2021/01/23 11:36:54;;;;;;;1.17;0.70;;;8.60;99.90;;;;;;5036206;28;20229;-73
2021/01/23 11:39:21;;;;;;;4.23;1.20;;;8.40;99.90;;;;;;5036024;28;20698;-72
2021/01/23 11:41:47;;;;;;;1.50;0.70;;;8.10;99.90;;;;;;5036045;28;20216;-72
2021/01/23 11:44:14;;;;;;;2.33;0.80;;;8.00;99.90;;;;;;5036306;28;20279;-72
2021/01/23 11:46:40;;;;;;;3.57;0.80;;;7.90;99.90;;;;;;5036039;28;20232;-71
2021/01/23 11:49:06;;;;;;;2.60;0.97;;;7.90;99.90;;;;;;5036057;28;20667;-72
2021/01/23 11:51:32;;;;;;;3.40;0.80;;;7.80;99.90;;;;;;5036136;28;20217;-73
2021/01/23 11:53:59;;;;;;;3.10;0.90;;;7.70;99.90;;;;;;5036109;28;20671;-71
2021/01/23 11:56:27;;;;;;;3.07;0.80;;;7.90;99.90;;;;;;5035638;28;20225;-73
2021/01/23 11:58:53;;;;;;;5.63;1.10;;;8.10;99.90;;;;;;5036134;28;20209;-72
2021/01/23 12:01:19;;;;;;;3.07;0.63;;;8.20;99.90;;;;;;5036065;28;20659;-72
2021/01/23 12:03:46;;;;;;;2.67;0.90;;;8.30;99.90;;;;;;5035747;28;20200;-71
2021/01/23 12:06:12;;;;;;;3.03;0.90;;;8.40;99.90;;;;;;5035734;28;20240;-72
2021/01/23 12:08:38;;;;;;;3.37;0.83;;;8.30;99.90;;;;;;5035918;28;20255;-72
2021/01/23 12:11:04;;;;;;;2.30;0.90;;;8.30;99.90;;;;;;5035657;28;20200;-72
2021/01/23 12:13:31;;;;;;;2.03;0.90;;;8.40;99.90;;;;;;5035976;28;20201;-71
2021/01/23 12:15:58;;;;;;;2.00;0.80;;;8.30;99.90;;;;;;5035644;28;20233;-72
2021/01/23 12:18:24;;;;;;;1.83;0.80;;;8.40;99.90;;;;;;5035411;28;20216;-72
2021/01/23 12:20:51;;;;;;;6.07;1.13;;;8.30;99.90;;;;;;5035655;28;20204;-71
2021/01/23 12:23:17;;;;;;;1.33;0.80;;;8.30;99.90;;;;;;5035460;28;20205;-72
2021/01/23 12:25:43;;;;;;;1.97;0.60;;;8.10;99.90;;;;;;5035129;28;20232;-72
2021/01/23 12:28:09;;;;;;;2.23;0.83;;;8.10;99.90;;;;;;5035746;28;20209;-71
2021/01/23 12:30:36;;;;;;;2.13;0.90;;;8.00;99.90;;;;;;5035157;28;20205;-71
2021/01/23 12:33:03;;;;;;;1.40;0.63;;;8.00;99.90;;;;;;5035271;28;20567;-71
2021/01/23 12:35:29;;;;;;;1.33;0.83;;;8.00;99.90;;;;;;5035041;28;20205;-71
2021/01/23 12:37:58;;;;;;;2.10;0.87;;;8.00;99.90;;;;;;5035036;28;20225;-72
2021/01/23 12:40:25;;;;;;;1.40;0.90;;;7.90;99.90;;;;;;5034908;28;20300;-70
2021/01/23 12:42:52;;;;;;;1.10;0.67;;;7.80;99.90;;;;;;5035206;28;20205;-71
2021/01/23 12:45:18;;;;;;;4.13;0.80;;;8.00;99.90;;;;;;5035205;28;20239;-70
2021/01/23 12:47:45;;;;;;;2.53;0.70;;;8.10;99.90;;;;;;5035124;28;20228;-70
2021/01/23 12:50:12;;;;;;;2.03;0.70;;;8.20;99.90;;;;;;5035430;28;20205;-70
2021/01/23 12:52:38;;;;;;;1.27;0.70;;;8.10;99.90;;;;;;5035210;28;20582;-71
2021/01/23 12:55:07;;;;;;;1.57;0.70;;;8.00;99.90;;;;;;5035074;28;20209;-71
2021/01/23 12:57:35;;;;;;;7.13;0.90;;;8.20;99.90;;;;;;5035087;28;20224;-71
2021/01/23 13:00:03;;;;;;;3.73;0.97;;;8.20;99.90;;;;;;5034983;28;20204;-71
2021/01/23 13:02:30;;;;;;;2.90;0.90;;;8.10;99.90;;;;;;5034954;28;20208;-71
2021/01/23 13:04:57;;;;;;;1.70;0.77;;;8.00;99.90;;;;;;5034417;28;20229;-72
2021/01/23 13:07:24;;;;;;;4.20;0.60;;;8.00;99.90;;;;;;5034737;28;20229;-71
2021/01/23 13:09:50;;;;;;;1.57;0.97;;;8.00;99.90;;;;;;5034937;28;20212;-72
2021/01/23 13:12:16;;;;;;;3.60;0.77;;;8.10;99.90;;;;;;5034801;28;20201;-71
2021/01/23 13:14:42;;;;;;;3.00;0.83;;;8.10;99.90;;;;;;5034619;28;20270;-70
2021/01/23 13:17:09;;;;;;;2.20;0.80;;;8.00;99.90;;;;;;5034254;28;20229;-71
2021/01/23 13:19:35;;;;;;;3.80;0.83;;;8.00;99.90;;;;;;5034341;28;20208;-71
2021/01/23 13:22:02;;;;;;;2.30;0.90;;;8.10;99.90;;;;;;5034324;28;20544;-70
2021/01/23 13:24:28;;;;;;;1.00;0.73;;;8.00;99.90;;;;;;5034425;28;20196;-71
2021/01/23 13:26:54;;;;;;;2.30;0.93;;;7.80;99.90;;;;;;5034431;28;20224;-71
2021/01/23 13:29:21;;;;;;;3.30;0.97;;;7.90;99.90;;;;;;5033595;28;20205;-70
2021/01/23 13:31:47;;;;;;;4.17;1.07;;;8.00;99.90;;;;;;5034416;28;20209;-71
2021/01/23 13:34:13;;;;;;;5.83;1.10;;;8.20;99.90;;;;;;5034225;28;20213;-71
2021/01/23 13:36:40;;;;;;;1.73;0.87;;;8.10;99.90;;;;;;5034301;28;20228;-72
2021/01/23 13:39:09;;;;;;;3.93;0.77;;;8.20;99.90;;;;;;5034338;28;20213;-71
2021/01/23 13:41:35;;;;;;;0.87;0.63;;;8.20;99.90;;;;;;5034185;28;20204;-71
2021/01/23 13:44:02;;;;;;;4.10;0.90;;;8.30;99.90;;;;;;5034288;28;20200;-72
2021/01/23 13:46:29;;;;;;;2.33;0.83;;;8.40;99.90;;;;;;5034037;28;20255;-72
2021/01/23 13:48:55;;;;;;;2.60;0.80;;;8.40;99.90;;;;;;5034350;28;20551;-72
2021/01/23 13:51:21;;;;;;;5.10;0.60;;;8.60;99.90;;;;;;5033851;28;20231;-70
2021/01/23 13:53:48;;;;;;;1.23;0.73;;;8.80;99.90;;;;;;5033675;28;20664;-72
2021/01/23 13:56:15;;;;;;;2.67;0.97;;;8.90;99.90;;;;;;5033447;28;20733;-72
2021/01/23 13:58:41;;;;;;;1.43;0.70;;;9.00;99.90;;;;;;5033770;28;20208;-71
2021/01/23 14:01:07;;;;;;;2.57;0.83;;;8.90;99.90;;;;;;5033514;28;20209;-71
2021/01/23 14:03:34;;;;;;;1.20;0.70;;;8.50;99.90;;;;;;5034109;28;20575;-72
2021/01/23 14:06:00;;;;;;;3.50;0.60;;;8.60;99.90;;;;;;5033462;28;20287;-72
2021/01/23 14:08:26;;;;;;;1.30;0.53;;;8.70;99.90;;;;;;5033764;28;20205;-71
2021/01/23 14:10:53;;;;;;;2.87;0.87;;;8.70;99.90;;;;;;5033410;28;20205;-71
2021/01/23 14:13:20;;;;;;;2.03;0.70;;;8.80;99.90;;;;;;5033707;28;20235;-71
2021/01/23 14:15:46;;;;;;;1.30;0.90;;;8.80;99.90;;;;;;5033582;28;20209;-72
2021/01/23 14:18:12;;;;;;;3.37;1.17;;;8.60;99.90;;;;;;5033583;28;20216;-71
2021/01/23 14:20:39;;;;;;;1.90;0.90;;;8.60;99.90;;;;;;5033444;28;20451;-72
2021/01/23 14:23:05;;;;;;;1.60;0.90;;;8.60;99.90;;;;;;5033242;28;20690;-71
2021/01/23 14:25:31;;;;;;;3.27;0.93;;;8.70;99.90;;;;;;5032991;28;20699;-70
2021/01/23 14:27:57;;;;;;;2.07;1.03;;;8.80;99.90;;;;;;5033296;28;20209;-71
2021/01/23 14:30:25;;;;;;;4.60;0.60;;;8.60;99.90;;;;;;5033079;28;20209;-72
2021/01/23 14:32:51;;;;;;;3.53;0.70;;;8.70;99.90;;;;;;5033408;28;20209;-71
2021/01/23 14:35:17;;;;;;;2.77;0.70;;;8.80;99.90;;;;;;5033444;28;20204;-72
2021/01/23 14:37:44;;;;;;;1.47;0.70;;;8.90;99.90;;;;;;5033101;28;20280;-71
2021/01/23 14:40:12;;;;;;;1.90;0.80;;;8.60;99.90;;;;;;5032783;28;20216;-71
2021/01/23 14:42:38;;;;;;;4.37;0.80;;;8.50;99.90;;;;;;5032888;28;20547;-71
2021/01/23 14:45:06;;;;;;;2.67;0.73;;;8.60;99.90;;;;;;5032787;28;20278;-72
2021/01/23 14:47:33;;;;;;;5.93;0.80;;;8.60;99.90;;;;;;5032797;28;20225;-71
2021/01/23 14:49:59;;;;;;;1.47;0.70;;;8.70;99.90;;;;;;5033114;28;20223;-72
2021/01/23 14:52:25;;;;;;;4.83;0.80;;;8.60;99.90;;;;;;5032920;28;20209;-71
2021/01/23 14:54:52;;;;;;;1.73;0.67;;;8.60;99.90;;;;;;5032521;28;20212;-72
2021/01/23 14:57:18;;;;;;;1.60;0.57;;;8.70;99.90;;;;;;5032275;28;20607;-71
2021/01/23 14:59:44;;;;;;;1.00;0.60;;;8.80;99.90;;;;;;5032665;28;20205;-72
2021/01/23 15:02:10;;;;;;;2.67;0.70;;;8.80;99.90;;;;;;5032999;28;20215;-72
2021/01/23 15:04:37;;;;;;;1.00;0.50;;;8.80;99.90;;;;;;5032675;28;20545;-72
2021/01/23 15:07:04;;;;;;;1.90;0.60;;;8.90;99.90;;;;;;5032589;28;20707;-72
2021/01/23 15:09:30;;;;;;;1.17;0.73;;;8.90;99.90;;;;;;5032630;28;20639;-72
2021/01/23 15:11:57;;;;;;;2.97;0.80;;;8.90;99.90;;;;;;5032631;28;20209;-72
2021/01/23 15:14:23;;;;;;;3.77;0.80;;;8.90;99.90;;;;;;5033119;28;20216;-71
2021/01/23 15:16:49;;;;;;;0.90;0.60;;;8.90;99.90;;;;;;5032594;28;20232;-72
2021/01/23 15:19:16;;;;;;;3.80;1.03;;;8.80;99.90;;;;;;5032430;28;20671;-72
2021/01/23 15:21:43;;;;;;;1.63;0.77;;;8.90;99.90;;;;;;5032405;28;20208;-72
2021/01/23 15:24:09;;;;;;;2.50;0.90;;;8.60;99.90;;;;;;5032762;28;20205;-71
2021/01/23 15:26:35;;;;;;;7.93;0.80;;;8.40;99.90;;;;;;5032177;28;20232;-72
2021/01/23 15:29:01;;;;;;;2.97;0.80;;;8.10;99.90;;;;;;5032724;28;20205;-72
2021/01/23 15:31:28;;;;;;;3.80;1.10;;;7.90;99.90;;;;;;5032937;28;20209;-71
2021/01/23 15:33:54;;;;;;;1.63;0.70;;;7.90;99.90;;;;;;5032462;28;20205;-71
2021/01/23 15:36:21;;;;;;;1.63;0.83;;;7.70;99.90;;;;;;5032920;28;20229;-71
2021/01/23 15:38:48;;;;;;;2.73;0.77;;;7.60;99.90;;;;;;5032142;28;20212;-71
2021/01/23 15:41:14;;;;;;;3.53;0.73;;;7.30;99.90;;;;;;5032298;28;20205;-71
2021/01/23 15:43:40;;;;;;;1.40;0.73;;;7.20;99.90;;;;;;5032760;28;20205;-71
2021/01/23 15:46:06;;;;;;;0.90;0.60;;;7.10;99.90;;;;;;5032279;28;20240;-71
2021/01/23 15:48:33;;;;;;;2.17;1.53;;;7.20;99.90;;;;;;5032231;28;20611;-71
2021/01/23 15:50:59;;;;;;;4.13;1.60;;;7.20;99.90;;;;;;5032500;28;20212;-71
2021/01/23 15:53:25;;;;;;;5.20;1.40;;;7.20;99.90;;;;;;5034672;28;20660;-71
2021/01/23 15:55:52;;;;;;;3.07;0.90;;;7.20;99.90;;;;;;5035764;28;20580;-71
2021/01/23 15:58:19;;;;;;;2.53;0.90;;;7.50;99.90;;;;;;5036219;28;20209;-71
2021/01/23 16:00:45;;;;;;;2.20;0.97;;;7.50;99.90;;;;;;5036105;28;20602;-71
2021/01/23 16:03:12;;;;;;;2.67;1.10;;;7.40;99.90;;;;;;5036030;28;20201;-71
2021/01/23 16:05:38;;;;;;;5.03;1.60;;;7.40;99.90;;;;;;5035580;28;20229;-71
2021/01/23 16:08:05;;;;;;;3.20;1.40;;;7.40;99.90;;;;;;5035801;28;20201;-71
2021/01/23 16:10:31;;;;;;;3.83;1.23;;;7.60;99.90;;;;;;5035615;28;20207;-71
2021/01/23 16:12:59;;;;;;;5.57;1.43;;;7.60;99.90;;;;;;5035828;28;20563;-71
2021/01/23 16:15:25;;;;;;;3.97;1.40;;;7.70;99.90;;;;;;5036017;28;20278;-71
2021/01/23 16:17:53;;;;;;;2.90;1.70;;;7.80;99.90;;;;;;5035629;28;20707;-71
2021/01/23 16:20:19;;;;;;;2.70;1.70;;;7.70;99.90;;;;;;5035577;28;20211;-71
2021/01/23 16:22:47;;;;;;;2.93;1.03;;;7.70;99.90;;;;;;5035561;28;20208;-71
2021/01/23 16:25:13;;;;;;;5.80;1.50;;;7.80;99.90;;;;;;5035302;28;20263;-71
2021/01/23 16:27:39;;;;;;;5.40;1.33;;;7.90;99.90;;;;;;5035706;28;20600;-71
2021/01/23 16:30:08;;;;;;;6.17;1.50;;;8.10;99.90;;;;;;5035451;28;20208;-71
2021/01/23 16:32:36;;;;;;;4.17;1.17;;;8.20;99.90;;;;;;5035528;28;20208;-71
2021/01/23 16:35:02;;;;;;;4.77;1.47;;;8.20;99.90;;;;;;5035381;28;20208;-71
2021/01/23 16:37:30;;;;;;;2.87;1.63;;;7.90;99.90;;;;;;5035763;28;20228;-71
2021/01/23 16:39:59;;;;;;;3.97;1.70;;;8.00;99.90;;;;;;5035378;28;20244;-71
2021/01/23 16:42:25;;;;;;;6.47;2.40;;;7.90;99.90;;;;;;5035243;28;20204;-70
2021/01/23 16:44:51;;;;;;;7.27;1.83;;;7.90;99.90;;;;;;5035238;28;20686;-71
2021/01/23 16:47:18;;;;;;;8.07;2.00;;;8.00;99.90;;;;;;5035059;28;20647;-71
2021/01/23 16:49:45;;;;;;;5.10;1.83;;;8.00;99.90;;;;;;5035114;28;20671;-70
2021/01/23 16:52:11;;;;;;;10.20;2.93;;;7.80;99.90;;;;;;5035113;28;20212;-71
2021/01/23 16:54:37;;;;;;;7.47;2.90;;;7.70;99.90;;;;;;5035037;28;20220;-70
2021/01/23 16:57:04;;;;;;;6.30;2.33;;;7.60;99.90;;;;;;5035110;28;20247;-71
2021/01/23 16:59:30;;;;;;;3.97;2.03;;;7.60;99.90;;;;;;5035225;28;20201;-70
2021/01/23 17:01:56;;;;;;;5.10;2.00;;;7.60;99.90;;;;;;5034802;28;20205;-71
2021/01/23 17:04:23;;;;;;;5.03;2.40;;;7.50;99.90;;;;;;5034767;28;20258;-71
2021/01/23 17:06:50;;;;;;;8.70;2.40;;;7.40;99.90;;;;;;5034499;28;20237;-70
2021/01/23 17:09:16;;;;;;;3.87;2.53;;;7.30;99.90;;;;;;5034793;28;20209;-71
2021/01/23 17:11:42;;;;;;;7.53;2.97;;;7.20;99.90;;;;;;5034606;28;20216;-71
2021/01/23 17:14:08;;;;;;;9.70;2.70;;;6.90;99.90;;;;;;5034578;28;20208;-70
2021/01/23 17:16:35;;;;;;;3.37;2.40;;;6.80;99.90;;;;;;5034416;28;20225;-70
2021/01/23 17:19:01;;;;;;;4.03;2.73;;;6.70;99.90;;;;;;5034571;28;20683;-71
2021/01/23 17:21:28;;;;;;;6.60;3.00;;;6.60;99.90;;;;;;5034778;28;20226;-71
2021/01/23 17:23:54;;;;;;;5.43;2.57;;;6.60;99.90;;;;;;5034749;28;20212;-71
2021/01/23 17:26:20;;;;;;;5.87;2.93;;;6.50;99.90;;;;;;5033204;28;20233;-70
2021/01/23 17:28:47;;;;;;;5.73;2.83;;;6.50;99.90;;;;;;5034103;28;20259;-70
2021/01/23 17:31:13;;;;;;;5.67;2.57;;;6.60;99.90;;;;;;5033684;28;20201;-70
2021/01/23 17:33:39;;;;;;;4.83;2.80;;;6.50;99.90;;;;;;5033671;28;20201;-70
2021/01/23 17:36:07;;;;;;;8.17;2.83;;;6.40;99.90;;;;;;5034050;28;20287;-70
2021/01/23 17:38:34;;;;;;;6.50;3.37;;;6.40;99.90;;;;;;5034089;28;20209;-70
2021/01/23 17:41:00;;;;;;;5.63;2.30;;;6.30;99.90;;;;;;5033703;28;20667;-70
2021/01/23 17:43:27;;;;;;;7.37;2.87;;;6.20;99.90;;;;;;5033615;28;20208;-70
2021/01/23 17:45:53;;;;;;;6.03;3.17;;;6.20;99.90;;;;;;5033514;28;20232;-70
2021/01/23 17:48:19;;;;;;;4.53;2.77;;;6.20;99.90;;;;;;5033415;28;20205;-69
2021/01/23 17:50:45;;;;;;;5.53;3.17;;;6.20;99.90;;;;;;5033802;28;20267;-69
2021/01/23 17:53:14;;;;;;;6.00;2.90;;;6.20;99.90;;;;;;5033682;28;20204;-69
2021/01/23 17:55:42;;;;;;;7.10;3.63;;;6.10;99.90;;;;;;5033232;28;20269;-70
2021/01/23 17:58:08;;;;;;;5.83;3.30;;;6.00;99.90;;;;;;5033496;28;20209;-70
2021/01/23 18:00:34;;;;;;;7.53;4.20;;;6.00;99.90;;;;;;5033571;28;20614;-70
2021/01/23 18:03:01;;;;;;;8.20;4.33;;;6.00;99.90;;;;;;5033135;28;20209;-69
2021/01/23 18:05:27;;;;;;;7.33;4.20;;;5.90;99.90;;;;;;5033385;28;20232;-69
2021/01/23 18:07:53;;;;;;;9.20;4.23;;;5.90;99.90;;;;;;5033457;28;20224;-70
2021/01/23 18:10:21;;;;;;;4.33;3.03;;;5.90;99.90;;;;;;5033221;28;20209;-70
2021/01/23 18:12:48;;;;;;;4.23;2.30;;;5.70;99.90;;;;;;5032251;28;20196;-70
2021/01/23 18:15:15;;;;;;;6.47;2.70;;;5.40;99.90;;;;;;5021915;28;20205;-70
2021/01/23 18:17:42;;;;;;;3.63;2.50;;;5.20;99.90;;;;;;5023786;28;20213;-70
2021/01/23 18:20:09;;;;;;;3.80;2.43;;;4.90;99.90;;;;;;5022755;28;20198;-70
2021/01/23 18:22:36;;;;;;;4.93;2.80;;;4.80;99.90;;;;;;5033088;28;20205;-70
2021/01/23 18:25:02;;;;;;;5.67;3.03;;;4.70;99.90;;;;;;5033123;28;20664;-72
2021/01/23 18:27:29;;;;;;;6.77;3.17;;;4.70;99.90;;;;;;5032930;28;20718;-69
2021/01/23 18:29:56;;;;;;;6.23;4.00;;;4.60;99.90;;;;;;5033043;28;20232;-70
2021/01/23 18:32:23;;;;;;;6.13;3.50;;;4.60;99.90;;;;;;5033280;28;20209;-70
2021/01/23 18:34:49;;;;;;;6.57;3.83;;;4.60;99.90;;;;;;5033132;28;20209;-70
2021/01/23 18:37:15;;;;;;;4.87;3.10;;;4.50;99.90;;;;;;5032937;28;20303;-71
2021/01/23 18:39:42;;;;;;;6.53;3.20;;;4.50;99.90;;;;;;5032886;28;20216;-71
2021/01/23 18:42:09;;;;;;;4.17;2.70;;;4.40;99.90;;;;;;5033106;28;20197;-70
2021/01/23 18:44:35;;;;;;;5.67;2.77;;;4.20;99.90;;;;;;5026482;28;20198;-69
2021/01/23 18:47:02;;;;;;;7.50;2.70;;;4.10;99.90;;;;;;5031855;28;20232;-70
2021/01/23 18:49:28;;;;;;;3.70;2.53;;;4.10;99.90;;;;;;5022693;28;20201;-70
2021/01/23 18:51:55;;;;;;;5.67;2.57;;;4.00;99.90;;;;;;5022661;28;20205;-70
2021/01/23 18:54:21;;;;;;;3.83;2.07;;;3.80;99.90;;;;;;5032140;28;20197;-70
2021/01/23 18:56:47;;;;;;;3.33;1.80;;;3.70;99.90;;;;;;5022807;28;20213;-70
2021/01/23 18:59:13;;;;;;;3.23;1.83;;;3.60;99.90;;;;;;5021633;28;20201;-71
2021/01/23 19:01:40;;;;;;;2.23;1.53;;;3.50;99.90;;;;;;5020310;28;20671;-70
2021/01/23 19:04:07;;;;;;;3.00;1.57;;;3.50;99.90;;;;;;5032052;28;20254;-70
2021/01/23 19:06:34;;;;;;;3.33;1.60;;;3.50;99.90;;;;;;5019445;28;20263;-70
2021/01/23 19:09:00;;;;;;;2.57;1.77;;;3.40;99.90;;;;;;5030618;28;20674;-71
2021/01/23 19:11:26;;;;;;;2.47;1.80;;;3.40;99.90;;;;;;5027852;28;20198;-71
2021/01/23 19:13:53;;;;;;;2.90;1.37;;;3.50;99.90;;;;;;5020704;28;20194;-70
2021/01/23 19:16:19;;;;;;;2.70;1.37;;;3.40;99.90;;;;;;5031547;28;20699;-70
2021/01/23 19:18:45;;;;;;;4.80;2.13;;;3.40;99.90;;;;;;5031812;28;20204;-71
2021/01/23 19:21:12;;;;;;;2.83;1.30;;;3.40;99.90;;;;;;5020983;28;20198;-71
2021/01/23 19:23:38;;;;;;;1.97;1.47;;;3.30;99.90;;;;;;5031921;28;20193;-70
2021/01/23 19:26:05;;;;;;;2.77;1.30;;;3.30;99.90;;;;;;5030618;28;20228;-71
2021/01/23 19:28:31;;;;;;;2.07;1.17;;;3.30;99.90;;;;;;5033253;28;20208;-71
2021/01/23 19:30:57;;;;;;;3.03;1.50;;;3.40;99.90;;;;;;5026297;28;20201;-71
2021/01/23 19:33:23;;;;;;;2.47;0.90;;;3.30;99.90;;;;;;5026642;28;20205;-71
2021/01/23 19:35:50;;;;;;;2.17;0.97;;;3.30;99.90;;;;;;5025984;28;20202;-70
2021/01/23 19:38:17;;;;;;;2.27;1.23;;;3.30;99.90;;;;;;5035598;28;20196;-70
2021/01/23 19:40:43;;;;;;;2.57;1.57;;;3.20;99.90;;;;;;5035261;28;20212;-71
2021/01/23 19:43:09;;;;;;;3.47;1.73;;;3.20;99.90;;;;;;5035443;28;20201;-71
2021/01/23 19:45:36;;;;;;;4.63;1.80;;;3.30;99.90;;;;;;5025386;28;20227;-71
2021/01/23 19:48:02;;;;;;;4.37;1.93;;;3.30;99.90;;;;;;5026850;28;20193;-71
2021/01/23 19:50:28;;;;;;;2.00;1.20;;;3.20;99.90;;;;;;5024740;28;20198;-71
2021/01/23 19:52:55;;;;;;;2.70;1.80;;;3.20;99.90;;;;;;5035160;28;20683;-70
2021/01/23 19:55:22;;;;;;;2.47;1.43;;;3.30;99.90;;;;;;5033765;28;20204;-71
2021/01/23 19:57:48;;;;;;;2.57;1.57;;;3.10;99.90;;;;;;5033113;28;20221;-72
2021/01/23 20:00:16;;;;;;;4.33;1.97;;;3.00;99.90;;;;;;5034188;28;20219;-72
2021/01/23 20:02:42;;;;;;;2.53;1.10;;;3.00;99.90;;;;;;5034561;28;20244;-71
2021/01/23 20:05:10;;;;;;;2.57;1.00;;;3.00;99.90;;;;;;5034878;28;20201;-72
2021/01/23 20:07:36;;;;;;;1.83;1.30;;;3.10;99.90;;;;;;5029558;28;20290;-72
2021/01/23 20:10:03;;;;;;;1.33;1.10;;;3.10;99.90;;;;;;5034153;28;20667;-72
2021/01/23 20:12:31;;;;;;;3.03;1.40;;;3.00;99.90;;;;;;5035519;28;20591;-72
2021/01/23 20:14:57;;;;;;;1.40;0.80;;;3.00;99.90;;;;;;5035932;28;20318;-72
2021/01/23 20:17:23;;;;;;;3.07;1.20;;;3.00;99.90;;;;;;5035574;28;20236;-72
2021/01/23 20:19:49;;;;;;;1.40;1.00;;;3.10;99.90;;;;;;5035508;28;20296;-71
2021/01/23 20:22:16;;;;;;;1.87;1.17;;;3.10;99.90;;;;;;5034806;28;20216;-71
2021/01/23 20:24:42;;;;;;;2.10;1.23;;;3.10;99.90;;;;;;5035199;28;20216;-72
2021/01/23 20:27:08;;;;;;;1.63;1.20;;;3.10;99.90;;;;;;5035329;28;20638;-72
2021/01/23 20:29:35;;;;;;;3.00;1.30;;;3.10;99.90;;;;;;5035641;28;20219;-72
2021/01/23 20:32:01;;;;;;;1.80;1.30;;;3.20;99.90;;;;;;5035573;28;20251;-72
2021/01/23 20:34:28;;;;;;;1.33;1.07;;;3.20;99.90;;;;;;5035493;28;20263;-72
2021/01/23 20:36:55;;;;;;;4.27;1.60;;;3.30;99.90;;;;;;5035155;28;20584;-72
2021/01/23 20:39:21;;;;;;;2.60;1.63;;;3.20;99.90;;;;;;5034558;28;20217;-71
2021/01/23 20:41:48;;;;;;;2.00;1.40;;;3.20;99.90;;;;;;5034858;28;20208;-72
2021/01/23 20:44:14;;;;;;;2.00;1.60;;;3.30;99.90;;;;;;5035060;28;20679;-72
2021/01/23 20:46:42;;;;;;;2.30;1.43;;;3.30;99.90;;;;;;5035136;28;20236;-71
2021/01/23 20:49:08;;;;;;;2.73;1.37;;;3.30;99.90;;;;;;5035195;28;20219;-72
2021/01/23 20:51:34;;;;;;;3.33;1.40;;;3.30;99.90;;;;;;5035111;28;20216;-72
2021/01/23 20:54:02;;;;;;;2.87;1.60;;;3.30;99.90;;;;;;5035413;28;20263;-72
2021/01/23 20:56:28;;;;;;;2.87;1.57;;;3.20;99.90;;;;;;5034948;28;20235;-72
2021/01/23 20:58:54;;;;;;;3.20;1.37;;;3.30;99.90;;;;;;5035115;28;20212;-72
2021/01/23 21:01:20;;;;;;;2.37;1.70;;;3.20;99.90;;;;;;5034922;28;20258;-72
2021/01/23 21:03:47;;;;;;;3.20;1.43;;;3.10;99.90;;;;;;5034933;28;20205;-72
2021/01/23 21:06:14;;;;;;;2.97;1.50;;;3.10;99.90;;;;;;5034453;28;20241;-72
2021/01/23 21:08:42;;;;;;;4.03;1.70;;;3.10;99.90;;;;;;5034642;28;20205;-72
2021/01/23 21:11:08;;;;;;;2.50;1.47;;;3.20;99.90;;;;;;5034787;28;20321;-72
2021/01/23 21:13:34;;;;;;;1.83;1.20;;;3.20;99.90;;;;;;5034697;28;20709;-72
2021/01/23 21:16:00;;;;;;;2.73;1.50;;;3.20;99.90;;;;;;5034534;28;20229;-72
2021/01/23 21:18:26;;;;;;;3.53;1.77;;;3.20;99.90;;;;;;5034262;28;20212;-72
2021/01/23 21:20:54;;;;;;;3.10;1.80;;;3.10;99.90;;;;;;5034400;28;20205;-72
2021/01/23 21:23:20;;;;;;;6.27;1.90;;;3.10;99.90;;;;;;5034935;28;20210;-72
2021/01/23 21:25:46;;;;;;;2.40;1.40;;;3.10;99.90;;;;;;5034381;28;20228;-71
2021/01/23 21:28:12;;;;;;;2.33;1.37;;;3.10;99.90;;;;;;5034359;28;20275;-72
2021/01/23 21:30:39;;;;;;;3.50;1.70;;;3.20;99.90;;;;;;5034406;28;20216;-72
2021/01/23 21:33:05;;;;;;;1.63;1.47;;;3.30;99.90;;;;;;5034323;28;20312;-72
2021/01/23 21:35:32;;;;;;;2.73;1.63;;;3.30;99.90;;;;;;5034429;28;20296;-72
2021/01/23 21:37:59;;;;;;;2.10;1.50;;;3.30;99.90;;;;;;5034464;28;20239;-71
2021/01/23 21:40:25;;;;;;;2.80;1.67;;;3.30;99.90;;;;;;5034508;28;20216;-72
2021/01/23 21:42:53;;;;;;;2.40;1.60;;;3.30;99.90;;;;;;5034415;28;20228;-72
2021/01/23 21:45:20;;;;;;;3.07;1.60;;;3.50;99.90;;;;;;5034132;28;20215;-72
2021/01/23 21:47:46;;;;;;;3.27;1.43;;;3.50;99.90;;;;;;5033583;28;20224;-72
2021/01/23 21:50:14;;;;;;;3.13;1.80;;;3.60;99.90;;;;;;5032838;28;20209;-72
2021/01/23 21:52:41;;;;;;;3.13;1.60;;;3.50;99.90;;;;;;5033817;28;20213;-71
2021/01/23 21:55:09;;;;;;;2.03;1.60;;;3.40;99.90;;;;;;5033819;28;20679;-72
2021/01/23 21:57:35;;;;;;;2.63;1.53;;;3.60;99.90;;;;;;5030736;28;20228;-73
2021/01/23 22:00:01;;;;;;;1.77;1.10;;;3.60;99.90;;;;;;5033459;28;20275;-69
